createdAt,value
2017-11-29T00:01:49.686Z,47.53
2017-11-29T00:06:52.212Z,44.17
2017-11-29T00:11:53.967Z,43.03
2017-11-29T00:16:55.703Z,53.63
2017-11-29T00:21:58.179Z,54.73
2017-11-29T00:26:59.928Z,42.80
2017-11-29T00:32:01.807Z,44.60
2017-11-29T00:37:04.496Z,44.33
2017-11-29T00:42:07.166Z,40.67
2017-11-29T00:47:08.932Z,41.30
2017-11-29T00:52:10.749Z,37.07
2017-11-29T00:57:12.519Z,43.70
2017-11-29T01:02:14.356Z,36.90
2017-11-29T01:07:16.127Z,34.13
2017-11-29T01:12:17.894Z,43.27
2017-11-29T01:17:19.656Z,41.27
2017-11-29T01:22:21.403Z,48.63
2017-11-29T01:27:23.196Z,34.90
2017-11-29T01:32:25.023Z,41.40
2017-11-29T01:37:26.886Z,36.63
2017-11-29T01:42:28.615Z,43.03
2017-11-29T01:47:30.468Z,41.20
2017-11-29T01:52:33.046Z,39.37
2017-11-29T01:57:34.939Z,42.13
2017-11-29T02:02:36.683Z,41.10
2017-11-29T02:07:39.174Z,34.80
2017-11-29T02:12:40.960Z,42.10
2017-11-29T02:17:42.759Z,44.77
2017-11-29T02:22:44.643Z,42.77
2017-11-29T02:27:47.499Z,41.70
2017-11-29T02:32:49.320Z,43.50
2017-11-29T02:37:51.926Z,41.67
2017-11-29T02:42:53.784Z,41.30
2017-11-29T02:47:55.599Z,40.10
2017-11-29T02:52:57.538Z,37.23
2017-11-29T02:58:05.281Z,33.50
2017-11-29T03:03:07.113Z,42.13
2017-11-29T03:08:08.855Z,41.03
2017-11-29T03:13:10.577Z,46.90
2017-11-29T03:18:12.294Z,43.63
2017-11-29T03:23:14.028Z,40.13
2017-11-29T03:28:15.754Z,40.80
2017-11-29T03:33:17.499Z,38.73
2017-11-29T03:38:19.305Z,41.80
2017-11-29T03:43:21.060Z,40.37
2017-11-29T03:48:24.747Z,40.17
2017-11-29T03:53:26.695Z,45.00
2017-11-29T03:58:28.437Z,43.00
2017-11-29T04:03:31.060Z,42.90
2017-11-29T04:08:33.548Z,41.70
2017-11-29T04:13:35.402Z,44.03
2017-11-29T04:18:37.216Z,43.17
2017-11-29T04:23:38.976Z,45.67
2017-11-29T04:28:41.578Z,40.57
2017-11-29T04:33:44.738Z,44.87
2017-11-29T04:38:46.569Z,52.97
2017-11-29T04:43:49.402Z,43.57
2017-11-29T04:48:52.236Z,41.50
2017-11-29T04:53:54.626Z,46.00
2017-11-29T04:58:57.272Z,46.63
2017-11-29T05:03:59.115Z,47.03
2017-11-29T05:09:01.463Z,44.03
2017-11-29T05:14:04.578Z,38.80
2017-11-29T05:19:06.537Z,47.13
2017-11-29T05:24:10.253Z,38.20
2017-11-29T05:29:13.281Z,41.53
2017-11-29T05:34:15.553Z,49.90
2017-11-29T05:39:18.341Z,50.20
2017-11-29T05:44:20.575Z,41.63
2017-11-29T05:49:23.103Z,49.63
2017-11-29T05:54:24.987Z,41.70
2017-11-29T05:59:27.632Z,49.53
2017-11-29T06:04:29.984Z,50.53
2017-11-29T06:09:31.863Z,43.03
2017-11-29T06:14:33.779Z,53.10
2017-11-29T06:19:35.685Z,50.40
2017-11-29T06:24:37.560Z,55.13
2017-11-29T06:29:40.723Z,59.57
2017-11-29T06:34:45.511Z,48.10
2017-11-29T06:39:51.565Z,53.70
2017-11-29T06:44:53.449Z,59.87
2017-11-29T06:49:55.289Z,57.73
2017-11-29T06:54:57.027Z,58.37
2017-11-29T06:59:59.509Z,59.60
2017-11-29T07:05:01.303Z,53.70
2017-11-29T07:10:03.313Z,60.57
2017-11-29T07:15:05.133Z,65.57
2017-11-29T07:20:06.933Z,55.30
2017-11-29T07:25:08.787Z,71.00
2017-11-29T07:30:10.510Z,51.73
2017-11-29T07:35:12.301Z,60.70
2017-11-29T07:40:14.073Z,58.60
2017-11-29T07:45:15.807Z,60.10
2017-11-29T07:50:17.571Z,58.33
2017-11-29T07:55:19.299Z,58.67
2017-11-29T08:00:21.028Z,51.53
2017-11-29T08:05:22.755Z,56.33
2017-11-29T08:10:25.272Z,54.27
2017-11-29T08:15:27.755Z,56.70
2017-11-29T08:20:29.565Z,46.23
2017-11-29T08:25:31.444Z,50.87
2017-11-29T08:30:33.422Z,55.27
2017-11-29T08:35:35.892Z,57.23
2017-11-29T08:40:37.777Z,53.33
2017-11-29T08:45:39.644Z,50.20
2017-11-29T08:50:41.551Z,59.33
2017-11-29T08:55:43.364Z,51.63
2017-11-29T09:00:45.206Z,48.20
2017-11-29T09:05:47.026Z,47.47
2017-11-29T09:10:49.600Z,45.93
2017-11-29T09:15:51.440Z,42.27
2017-11-29T09:20:53.263Z,41.37
2017-11-29T09:25:55.103Z,42.63
2017-11-29T09:30:56.944Z,39.43
2017-11-29T09:36:00.364Z,39.23
2017-11-29T09:41:02.246Z,33.37
2017-11-29T09:46:04.101Z,34.40
2017-11-29T09:51:05.986Z,38.00
2017-11-29T09:56:08.561Z,33.33
2017-11-29T10:01:10.385Z,36.60
2017-11-29T10:06:12.159Z,31.00
2017-11-29T10:11:14.014Z,33.27
2017-11-29T10:16:16.598Z,35.73
2017-11-29T10:21:18.383Z,29.63
2017-11-29T10:26:20.197Z,32.50
2017-11-29T10:31:22.019Z,31.20
2017-11-29T10:36:23.796Z,32.90
2017-11-29T10:41:30.939Z,29.27
2017-11-29T10:46:34.352Z,27.73
2017-11-29T10:51:38.876Z,40.13
2017-11-29T10:56:41.004Z,32.13
2017-11-29T11:01:42.904Z,30.60
2017-11-29T11:06:44.790Z,31.53
2017-11-29T11:11:46.752Z,30.93
2017-11-29T11:16:53.859Z,29.17
2017-11-29T11:21:55.870Z,29.47
2017-11-29T11:26:57.735Z,29.57
2017-11-29T11:32:00.214Z,26.23
2017-11-29T11:37:02.134Z,34.53
2017-11-29T11:42:04.010Z,26.17
2017-11-29T11:47:05.934Z,25.20
2017-11-29T11:52:07.819Z,23.33
2017-11-29T11:57:09.686Z,25.97
2017-11-29T12:02:11.477Z,20.50
2017-11-29T12:07:13.297Z,26.73
2017-11-29T12:12:15.102Z,21.20
2017-11-29T12:17:17.330Z,25.83
2017-11-29T12:22:19.128Z,29.50
2017-11-29T12:27:20.929Z,24.30
2017-11-29T12:32:24.027Z,30.63
2017-11-29T12:37:25.850Z,30.07
2017-11-29T12:42:27.683Z,32.43
2017-11-29T12:47:29.616Z,30.13
2017-11-29T12:52:31.579Z,36.27
2017-11-29T12:57:33.450Z,30.70
2017-11-29T13:02:35.504Z,40.83
2017-11-29T13:07:37.383Z,38.90
2017-11-29T13:12:41.502Z,37.07
2017-11-29T13:17:43.456Z,38.20
2017-11-29T13:22:45.358Z,41.27
2017-11-29T13:27:47.328Z,40.83
2017-11-29T13:32:49.280Z,36.43
2017-11-29T13:37:51.432Z,37.57
2017-11-29T13:42:53.306Z,40.60
2017-11-29T13:47:55.226Z,37.83
2017-11-29T13:52:58.176Z,42.13
2017-11-29T13:58:00.043Z,42.57
2017-11-29T14:03:04.527Z,41.63
2017-11-29T14:08:06.675Z,45.80
2017-11-29T14:13:08.491Z,54.43
2017-11-29T14:18:10.261Z,42.03
2017-11-29T14:23:12.174Z,49.13
2017-11-29T14:28:13.956Z,48.47
2017-11-29T14:33:15.855Z,47.90
2017-11-29T14:38:18.566Z,58.87
2017-11-29T14:43:21.329Z,43.23
2017-11-29T14:48:23.951Z,48.87
2017-11-29T14:53:29.552Z,52.00
2017-11-29T14:58:31.298Z,54.90
2017-11-29T15:03:33.108Z,48.37
2017-11-29T15:08:37.254Z,54.20
2017-11-29T15:13:39.499Z,52.80
2017-11-29T15:18:41.279Z,63.20
2017-11-29T15:23:43.044Z,60.40
2017-11-29T15:28:44.881Z,58.03
2017-11-29T15:33:46.836Z,55.27
2017-11-29T15:38:49.515Z,59.27
2017-11-29T15:43:51.332Z,48.27
2017-11-29T15:48:53.132Z,53.30
2017-11-29T15:53:54.947Z,60.63
2017-11-29T15:58:56.720Z,57.07
2017-11-29T16:03:58.627Z,52.20
2017-11-29T16:09:00.560Z,45.30
2017-11-29T16:14:02.548Z,51.50
2017-11-29T16:19:05.132Z,51.53
2017-11-29T16:24:06.930Z,61.13
2017-11-29T16:29:08.707Z,53.87
2017-11-29T16:34:10.484Z,55.57
2017-11-29T16:39:13.014Z,54.27
2017-11-29T16:44:15.567Z,62.77
2017-11-29T16:49:17.482Z,58.30
2017-11-29T16:54:19.265Z,72.93
2017-11-29T16:59:21.531Z,55.80
2017-11-29T17:04:24.132Z,70.90
2017-11-29T17:09:25.978Z,59.77
2017-11-29T17:14:27.890Z,70.30
2017-11-29T17:19:30.870Z,67.77
2017-11-29T17:24:32.612Z,67.83
2017-11-29T17:29:34.541Z,67.73
2017-11-29T17:34:36.372Z,81.63
2017-11-29T17:39:38.900Z,74.73
2017-11-29T17:44:40.730Z,67.10
2017-11-29T17:49:43.182Z,73.70
2017-11-29T17:54:45.036Z,75.33
2017-11-29T17:59:47.101Z,86.07
2017-11-29T18:04:49.166Z,82.63
2017-11-29T18:09:50.971Z,82.33
2017-11-29T18:14:52.872Z,78.93
2017-11-29T18:19:54.671Z,86.70
2017-11-29T18:24:56.538Z,76.83
2017-11-29T18:29:58.358Z,76.93
2017-11-29T18:35:01.065Z,81.67
2017-11-29T18:40:02.991Z,83.63
2017-11-29T18:45:04.831Z,87.93
2017-11-29T18:50:06.664Z,77.90
2017-11-29T18:55:08.444Z,87.93
2017-11-29T19:00:10.308Z,79.43
2017-11-29T19:05:12.112Z,98.63
2017-11-29T19:10:13.935Z,97.10
2017-11-29T19:15:15.828Z,102.17
2017-11-29T19:20:17.613Z,112.17
2017-11-29T19:25:19.468Z,100.33
2017-11-29T19:30:21.263Z,105.40
2017-11-29T19:35:23.149Z,106.77
2017-11-29T19:40:28.687Z,104.87
2017-11-29T19:45:31.443Z,123.20
2017-11-29T19:50:33.360Z,127.80
2017-11-29T19:55:38.508Z,116.10
2017-11-29T20:00:44.876Z,105.60
2017-11-29T20:05:49.708Z,118.83
2017-11-29T20:10:51.605Z,144.23
2017-11-29T20:15:53.469Z,121.60
2017-11-29T20:20:55.370Z,112.67
2017-11-29T20:25:57.914Z,117.67
2017-11-29T20:30:59.673Z,111.90
2017-11-29T20:36:02.526Z,108.33
2017-11-29T20:41:05.028Z,96.73
2017-11-29T20:46:07.615Z,90.10
2017-11-29T20:51:09.528Z,92.80
2017-11-29T20:56:11.360Z,88.37
2017-11-29T21:01:13.153Z,88.10
2017-11-29T21:06:14.924Z,78.37
2017-11-29T21:11:16.760Z,98.13
2017-11-29T21:16:18.660Z,88.90
2017-11-29T21:21:21.185Z,92.97
2017-11-29T21:26:22.914Z,91.23
2017-11-29T21:31:24.768Z,86.90
2017-11-29T21:36:27.278Z,86.70
2017-11-29T21:41:29.080Z,93.43
2017-11-29T21:46:31.184Z,90.23
2017-11-29T21:51:32.899Z,94.80
2017-11-29T21:56:35.486Z,90.47
2017-11-29T22:01:37.375Z,93.83
2017-11-29T22:06:39.143Z,80.33
2017-11-29T22:11:41.078Z,208.20
2017-11-29T22:16:42.939Z,99.90
2017-11-29T22:21:44.886Z,63.13
2017-11-29T22:26:47.379Z,65.97
2017-11-29T22:31:49.757Z,60.40
2017-11-29T22:36:52.238Z,51.57
2017-11-29T22:41:54.002Z,87.37
2017-11-29T22:46:55.765Z,91.30
2017-11-29T22:51:57.550Z,83.10
2017-11-29T22:56:59.982Z,103.90
2017-11-29T23:02:03.192Z,90.53
2017-11-29T23:07:05.342Z,104.47
2017-11-29T23:12:07.354Z,125.57
2017-11-29T23:17:09.078Z,130.57
2017-11-29T23:22:10.923Z,98.90
2017-11-29T23:27:12.763Z,106.67
2017-11-29T23:32:14.588Z,95.40
2017-11-29T23:37:16.405Z,103.53
2017-11-29T23:42:18.167Z,96.37
2017-11-29T23:47:19.987Z,100.87
2017-11-29T23:52:21.741Z,89.13
2017-11-29T23:57:24.230Z,76.57
